sensor_id;sensor_type;location;lat;lon;timestamp;pressure;altitude;pressure_sealevel;temperature
27715;BMP280;16051;53.024;8.630;2022-12-11T00:03:54;101117.53;;;0.19
27715;BMP280;16051;53.024;8.630;2022-12-11T00:07:56;101110.97;;;0.09
27715;BMP280;16051;53.024;8.630;2022-12-11T00:12:05;101112.13;;;0.01
27715;BMP280;16051;53.024;8.630;2022-12-11T00:16:09;101103.19;;;0.04
27715;BMP280;16051;53.024;8.630;2022-12-11T00:20:12;101103.19;;;0.00
27715;BMP280;16051;53.024;8.630;2022-12-11T00:24:14;101103.59;;;0.06
27715;BMP280;16051;53.024;8.630;2022-12-11T00:28:16;101100.88;;;0.06
27715;BMP280;16051;53.024;8.630;2022-12-11T00:32:20;101105.16;;;0.07
27715;BMP280;16051;53.024;8.630;2022-12-11T00:36:25;101089.22;;;0.06
27715;BMP280;16051;53.024;8.630;2022-12-11T00:40:27;101101.25;;;0.08
27715;BMP280;16051;53.024;8.630;2022-12-11T00:44:29;101096.22;;;0.14
27715;BMP280;16051;53.024;8.630;2022-12-11T00:48:33;101098.94;;;0.10
27715;BMP280;16051;53.024;8.630;2022-12-11T00:52:35;101110.19;;;0.12
27715;BMP280;16051;53.024;8.630;2022-12-11T00:56:37;101104.34;;;0.17
27715;BMP280;16051;53.024;8.630;2022-12-11T01:00:41;101099.31;;;0.09
27715;BMP280;16051;53.024;8.630;2022-12-11T01:04:57;101101.66;;;0.07
27715;BMP280;16051;53.024;8.630;2022-12-11T01:08:59;101107.09;;;0.07
27715;BMP280;16051;53.024;8.630;2022-12-11T01:13:15;101104.75;;;0.09
27715;BMP280;16051;53.024;8.630;2022-12-11T01:17:17;101107.44;;;0.16
27715;BMP280;16051;53.024;8.630;2022-12-11T01:21:21;101110.59;;;0.04
27715;BMP280;16051;53.024;8.630;2022-12-11T01:25:24;101113.31;;;0.07
27715;BMP280;16051;53.024;8.630;2022-12-11T01:29:26;101110.97;;;0.06
27715;BMP280;16051;53.024;8.630;2022-12-11T01:33:28;101108.63;;;0.00
27715;BMP280;16051;53.024;8.630;2022-12-11T01:37:32;101105.16;;;0.04
27715;BMP280;16051;53.024;8.630;2022-12-11T01:41:35;101113.69;;;0.06
27715;BMP280;16051;53.024;8.630;2022-12-11T01:45:42;101108.63;;;0.08
27715;BMP280;16051;53.024;8.630;2022-12-11T01:50:32;101117.56;;;0.01
27715;BMP280;16051;53.024;8.630;2022-12-11T01:54:37;101121.47;;;0.04
27715;BMP280;16051;53.024;8.630;2022-12-11T01:58:45;101107.47;;;0.05
27715;BMP280;16051;53.024;8.630;2022-12-11T02:02:48;101104.38;;;0.10
27715;BMP280;16051;53.024;8.630;2022-12-11T02:06:51;101105.16;;;0.04
27715;BMP280;16051;53.024;8.630;2022-12-11T02:11:05;101100.88;;;0.13
27715;BMP280;16051;53.024;8.630;2022-12-11T02:15:16;101102.81;;;0.06
27715;BMP280;16051;53.024;8.630;2022-12-11T02:19:47;101108.25;;;0.02
27715;BMP280;16051;53.024;8.630;2022-12-11T02:24:31;101093.13;;;0.01
27715;BMP280;16051;53.024;8.630;2022-12-11T02:28:50;101105.53;;;0.02
27715;BMP280;16051;53.024;8.630;2022-12-11T02:32:56;101091.97;;;-0.09
27715;BMP280;16051;53.024;8.630;2022-12-11T02:37:04;101101.66;;;-0.04
27715;BMP280;16051;53.024;8.630;2022-12-11T02:41:10;101097.00;;;-0.21
27715;BMP280;16051;53.024;8.630;2022-12-11T02:45:17;101089.25;;;-0.19
27715;BMP280;16051;53.024;8.630;2022-12-11T02:49:32;101085.00;;;-0.17
27715;BMP280;16051;53.024;8.630;2022-12-11T02:53:37;101090.81;;;-0.15
27715;BMP280;16051;53.024;8.630;2022-12-11T02:57:47;101095.84;;;-0.13
27715;BMP280;16051;53.024;8.630;2022-12-11T03:01:51;101085.38;;;-0.15
27715;BMP280;16051;53.024;8.630;2022-12-11T03:05:54;101079.53;;;-0.03
27715;BMP280;16051;53.024;8.630;2022-12-11T03:09:56;101073.34;;;-0.10
27715;BMP280;16051;53.024;8.630;2022-12-11T03:14:00;101078.41;;;-0.12
27715;BMP280;16051;53.024;8.630;2022-12-11T03:18:14;101074.91;;;-0.09
27715;BMP280;16051;53.024;8.630;2022-12-11T03:22:21;101069.81;;;-0.04
27715;BMP280;16051;53.024;8.630;2022-12-11T03:26:27;101064.03;;;-0.02
27715;BMP280;16051;53.024;8.630;2022-12-11T03:30:34;101066.38;;;-0.04
27715;BMP280;16051;53.024;8.630;2022-12-11T03:34:51;101065.19;;;-0.07
27715;BMP280;16051;53.024;8.630;2022-12-11T03:39:00;101071.78;;;-0.01
27715;BMP280;16051;53.024;8.630;2022-12-11T03:43:05;101063.66;;;-0.04
27715;BMP280;16051;53.024;8.630;2022-12-11T03:47:08;101049.66;;;0.01
27715;BMP280;16051;53.024;8.630;2022-12-11T03:51:14;101069.44;;;0.02
27715;BMP280;16051;53.024;8.630;2022-12-11T03:55:20;101062.44;;;0.04
27715;BMP280;16051;53.024;8.630;2022-12-11T03:59:23;101063.63;;;-0.01
27715;BMP280;16051;53.024;8.630;2022-12-11T04:03:25;101064.00;;;0.02
27715;BMP280;16051;53.024;8.630;2022-12-11T04:07:28;101069.44;;;0.02
27715;BMP280;16051;53.024;8.630;2022-12-11T04:11:31;101077.22;;;0.07
27715;BMP280;16051;53.024;8.630;2022-12-11T04:15:37;101072.16;;;0.05
27715;BMP280;16051;53.024;8.630;2022-12-11T04:19:40;101077.22;;;0.07
27715;BMP280;16051;53.024;8.630;2022-12-11T04:24:00;101079.53;;;0.08
27715;BMP280;16051;53.024;8.630;2022-12-11T04:28:18;101078.34;;;0.13
27715;BMP280;16051;53.024;8.630;2022-12-11T04:32:20;101070.19;;;0.16
27715;BMP280;16051;53.024;8.630;2022-12-11T04:36:25;101079.50;;;0.12
27715;BMP280;16051;53.024;8.630;2022-12-11T04:40:28;101079.13;;;0.20
27715;BMP280;16051;53.024;8.630;2022-12-11T04:44:32;101073.69;;;0.13
27715;BMP280;16051;53.024;8.630;2022-12-11T04:48:36;101078.00;;;0.04
27715;BMP280;16051;53.024;8.630;2022-12-11T04:52:38;101079.16;;;0.03
27715;BMP280;16051;53.024;8.630;2022-12-11T04:56:42;101073.31;;;0.04
27715;BMP280;16051;53.024;8.630;2022-12-11T05:00:44;101074.50;;;0.03
27715;BMP280;16051;53.024;8.630;2022-12-11T05:04:47;101074.09;;;-0.03
27715;BMP280;16051;53.024;8.630;2022-12-11T05:08:49;101069.84;;;0.04
27715;BMP280;16051;53.024;8.630;2022-12-11T05:12:52;101071.00;;;0.06
27715;BMP280;16051;53.024;8.630;2022-12-11T05:16:54;101075.66;;;-0.02
27715;BMP280;16051;53.024;8.630;2022-12-11T05:21:00;101069.06;;;-0.04
27715;BMP280;16051;53.024;8.630;2022-12-11T05:25:04;101063.22;;;0.08
27715;BMP280;16051;53.024;8.630;2022-12-11T05:29:07;101063.22;;;0.05
27715;BMP280;16051;53.024;8.630;2022-12-11T05:33:09;101067.50;;;-0.02
27715;BMP280;16051;53.024;8.630;2022-12-11T05:37:11;101064.03;;;-0.02
27715;BMP280;16051;53.024;8.630;2022-12-11T05:41:29;101066.72;;;0.05
27715;BMP280;16051;53.024;8.630;2022-12-11T05:45:34;101072.56;;;-0.07
27715;BMP280;16051;53.024;8.630;2022-12-11T05:49:36;101069.47;;;-0.06
27715;BMP280;16051;53.024;8.630;2022-12-11T05:53:40;101066.75;;;-0.06
27715;BMP280;16051;53.024;8.630;2022-12-11T05:57:46;101069.84;;;0.11
27715;BMP280;16051;53.024;8.630;2022-12-11T06:01:50;101073.31;;;0.04
27715;BMP280;16051;53.024;8.630;2022-12-11T06:05:52;101066.72;;;0.02
27715;BMP280;16051;53.024;8.630;2022-12-11T06:10:25;101065.16;;;0.00
27715;BMP280;16051;53.024;8.630;2022-12-11T06:14:27;101069.44;;;0.02
27715;BMP280;16051;53.024;8.630;2022-12-11T06:18:31;101067.50;;;0.02
27715;BMP280;16051;53.024;8.630;2022-12-11T06:22:36;101063.63;;;0.07
27715;BMP280;16051;53.024;8.630;2022-12-11T06:26:38;101062.88;;;-0.01
27715;BMP280;16051;53.024;8.630;2022-12-11T06:30:50;101053.16;;;0.02
27715;BMP280;16051;53.024;8.630;2022-12-11T06:34:53;101059.75;;;0.00
27715;BMP280;16051;53.024;8.630;2022-12-11T06:38:55;101066.72;;;0.02
27715;BMP280;16051;53.024;8.630;2022-12-11T06:42:57;101068.28;;;-0.01
27715;BMP280;16051;53.024;8.630;2022-12-11T06:46:59;101066.75;;;-0.06
27715;BMP280;16051;53.024;8.630;2022-12-11T06:51:07;101063.66;;;-0.04
27715;BMP280;16051;53.024;8.630;2022-12-11T06:55:09;101066.75;;;-0.06
27715;BMP280;16051;53.024;8.630;2022-12-11T06:59:11;101062.09;;;-0.05
27715;BMP280;16051;53.024;8.630;2022-12-11T07:03:20;101071.78;;;-0.04
27715;BMP280;16051;53.024;8.630;2022-12-11T07:07:41;101078.75;;;-0.10
27715;BMP280;16051;53.024;8.630;2022-12-11T07:11:44;101067.91;;;-0.14
27715;BMP280;16051;53.024;8.630;2022-12-11T07:15:47;101071.81;;;-0.11
27715;BMP280;16051;53.024;8.630;2022-12-11T07:19:49;101070.25;;;-0.09
27715;BMP280;16051;53.024;8.630;2022-12-11T07:23:52;101075.25;;;-0.04
27715;BMP280;16051;53.024;8.630;2022-12-11T07:28:05;101081.88;;;-0.05
27715;BMP280;16051;53.024;8.630;2022-12-11T07:32:07;101081.09;;;-0.09
27715;BMP280;16051;53.024;8.630;2022-12-11T07:36:12;101074.13;;;-0.10
27715;BMP280;16051;53.024;8.630;2022-12-11T07:40:16;101070.63;;;-0.10
27715;BMP280;16051;53.024;8.630;2022-12-11T07:44:18;101071.00;;;-0.01
27715;BMP280;16051;53.024;8.630;2022-12-11T07:48:20;101071.78;;;-0.04
27715;BMP280;16051;53.024;8.630;2022-12-11T07:52:23;101074.50;;;0.03
27715;BMP280;16051;53.024;8.630;2022-12-11T07:56:27;101072.94;;;-0.05
27715;BMP280;16051;53.024;8.630;2022-12-11T08:01:09;101072.94;;;-0.05
27715;BMP280;16051;53.024;8.630;2022-12-11T08:05:12;101066.38;;;-0.08
27715;BMP280;16051;53.024;8.630;2022-12-11T08:09:15;101083.81;;;-0.02
27715;BMP280;16051;53.024;8.630;2022-12-11T08:13:23;101077.59;;;0.05
27715;BMP280;16051;53.024;8.630;2022-12-11T08:17:26;101081.88;;;0.06
27715;BMP280;16051;53.024;8.630;2022-12-11T08:21:28;101072.16;;;0.02
27715;BMP280;16051;53.024;8.630;2022-12-11T08:25:32;101076.44;;;0.03
27715;BMP280;16051;53.024;8.630;2022-12-11T08:29:36;101083.81;;;0.06
27715;BMP280;16051;53.024;8.630;2022-12-11T08:33:39;101076.03;;;0.08
27715;BMP280;16051;53.024;8.630;2022-12-11T08:37:44;101075.28;;;0.00
27715;BMP280;16051;53.024;8.630;2022-12-11T08:41:49;101095.03;;;0.08
27715;BMP280;16051;53.024;8.630;2022-12-11T08:45:52;101093.88;;;0.09
27715;BMP280;16051;53.024;8.630;2022-12-11T08:49:58;101095.44;;;0.10
27715;BMP280;16051;53.024;8.630;2022-12-11T08:54:01;101101.66;;;0.07
27715;BMP280;16051;53.024;8.630;2022-12-11T08:58:06;101097.00;;;0.04
27715;BMP280;16051;53.024;8.630;2022-12-11T09:02:11;101107.47;;;0.09
27715;BMP280;16051;53.024;8.630;2022-12-11T09:06:16;101102.03;;;0.05
27715;BMP280;16051;53.024;8.630;2022-12-11T09:10:29;101105.91;;;0.08
27715;BMP280;16051;53.024;8.630;2022-12-11T09:14:31;101100.09;;;0.06
27715;BMP280;16051;53.024;8.630;2022-12-11T09:18:46;101103.19;;;0.04
27715;BMP280;16051;53.024;8.630;2022-12-11T09:22:48;101103.59;;;0.10
27715;BMP280;16051;53.024;8.630;2022-12-11T09:26:50;101103.97;;;0.01
27715;BMP280;16051;53.024;8.630;2022-12-11T09:30:54;101101.63;;;0.21
27715;BMP280;16051;53.024;8.630;2022-12-11T09:34:57;101095.44;;;0.10
27715;BMP280;16051;53.024;8.630;2022-12-11T09:39:15;101090.78;;;0.07
27715;BMP280;16051;53.024;8.630;2022-12-11T09:43:31;101083.03;;;0.05
27715;BMP280;16051;53.024;8.630;2022-12-11T09:47:40;101081.09;;;0.06
27715;BMP280;16051;53.024;8.630;2022-12-11T09:51:59;101078.72;;;0.15
27715;BMP280;16051;53.024;8.630;2022-12-11T09:56:15;101078.38;;;0.06
27715;BMP280;16051;53.024;8.630;2022-12-11T10:00:27;101087.66;;;0.12
27715;BMP280;16051;53.024;8.630;2022-12-11T10:04:47;101080.31;;;0.05
27715;BMP280;16051;53.024;8.630;2022-12-11T10:09:10;101074.09;;;0.01
27715;BMP280;16051;53.024;8.630;2022-12-11T10:13:30;101079.50;;;0.12
27715;BMP280;16051;53.024;8.630;2022-12-11T10:17:42;101086.53;;;0.06
27715;BMP280;16051;53.024;8.630;2022-12-11T10:21:50;101076.44;;;0.06
27715;BMP280;16051;53.024;8.630;2022-12-11T10:26:06;101070.56;;;0.15
27715;BMP280;16051;53.024;8.630;2022-12-11T10:30:16;101074.47;;;0.14
27715;BMP280;16051;53.024;8.630;2022-12-11T10:34:33;101071.78;;;0.10
27715;BMP280;16051;53.024;8.630;2022-12-11T10:38:41;101069.41;;;0.19
27715;BMP280;16051;53.024;8.630;2022-12-11T10:42:54;101065.53;;;0.20
27715;BMP280;16051;53.024;8.630;2022-12-11T10:47:05;101061.63;;;0.28
27715;BMP280;16051;53.024;8.630;2022-12-11T10:51:33;101057.72;;;0.29
27715;BMP280;16051;53.024;8.630;2022-12-11T10:55:45;101058.47;;;0.40
27715;BMP280;16051;53.024;8.630;2022-12-11T10:59:50;101044.53;;;0.31
27715;BMP280;16051;53.024;8.630;2022-12-11T11:03:56;101044.94;;;0.30
27715;BMP280;16051;53.024;8.630;2022-12-11T11:08:19;101034.81;;;0.37
27715;BMP280;16051;53.024;8.630;2022-12-11T11:12:26;101038.66;;;0.43
27715;BMP280;16051;53.024;8.630;2022-12-11T11:16:41;101028.53;;;0.51
27715;BMP280;16051;53.024;8.630;2022-12-11T11:20:47;101025.44;;;0.49
27715;BMP280;16051;53.024;8.630;2022-12-11T11:24:55;101033.25;;;0.47
27715;BMP280;16051;53.024;8.630;2022-12-11T11:29:27;101029.69;;;0.61
27715;BMP280;16051;53.024;8.630;2022-12-11T11:33:35;101023.03;;;0.62
27715;BMP280;16051;53.024;8.630;2022-12-11T11:37:44;101018.41;;;0.55
27715;BMP280;16051;53.024;8.630;2022-12-11T11:42:02;101008.75;;;0.54
27715;BMP280;16051;53.024;8.630;2022-12-11T11:46:13;101012.22;;;0.55
27715;BMP280;16051;53.024;8.630;2022-12-11T11:50:35;101016.09;;;0.61
27715;BMP280;16051;53.024;8.630;2022-12-11T11:54:42;101025.38;;;0.67
27715;BMP280;16051;53.024;8.630;2022-12-11T11:58:58;101020.31;;;0.62
27715;BMP280;16051;53.024;8.630;2022-12-11T12:03:10;101030.03;;;0.63
27715;BMP280;16051;53.024;8.630;2022-12-11T12:07:29;101026.16;;;0.64
27715;BMP280;16051;53.024;8.630;2022-12-11T12:11:42;101026.16;;;0.67
27715;BMP280;16051;53.024;8.630;2022-12-11T12:16:01;101023.44;;;0.67
27715;BMP280;16051;53.024;8.630;2022-12-11T12:20:19;101023.38;;;0.74
27715;BMP280;16051;53.024;8.630;2022-12-11T12:24:37;101030.00;;;0.70
27715;BMP280;16051;53.024;8.630;2022-12-11T12:28:51;101016.03;;;0.71
27715;BMP280;16051;53.024;8.630;2022-12-11T12:33:18;101020.31;;;0.72
27715;BMP280;16051;53.024;8.630;2022-12-11T12:38:09;101026.09;;;0.78
27715;BMP280;16051;53.024;8.630;2022-12-11T12:42:25;101012.88;;;0.73
27715;BMP280;16051;53.024;8.630;2022-12-11T12:46:55;101016.75;;;0.79
27715;BMP280;16051;53.024;8.630;2022-12-11T12:51:17;101019.81;;;0.84
27715;BMP280;16051;53.024;8.630;2022-12-11T12:55:23;101011.66;;;0.84
27715;BMP280;16051;53.024;8.630;2022-12-11T12:59:29;101024.13;;;0.82
27715;BMP280;16051;53.024;8.630;2022-12-11T13:03:36;101027.22;;;0.84
27715;BMP280;16051;53.024;8.630;2022-12-11T13:08:04;101021.00;;;0.80
27715;BMP280;16051;53.024;8.630;2022-12-11T13:12:14;101020.25;;;0.79
27715;BMP280;16051;53.024;8.630;2022-12-11T13:16:47;101022.56;;;0.81
27715;BMP280;16051;53.024;8.630;2022-12-11T13:21:02;101017.53;;;0.83
27715;BMP280;16051;53.024;8.630;2022-12-11T13:25:21;101019.44;;;0.86
27715;BMP280;16051;53.024;8.630;2022-12-11T13:29:29;101026.44;;;0.80
27715;BMP280;16051;53.024;8.630;2022-12-11T13:33:40;101026.03;;;0.85
27715;BMP280;16051;53.024;8.630;2022-12-11T13:37:48;101022.16;;;0.86
27715;BMP280;16051;53.024;8.630;2022-12-11T13:42:23;101031.84;;;0.90
27715;BMP280;16051;53.024;8.630;2022-12-11T13:46:38;101030.69;;;0.88
27715;BMP280;16051;53.024;8.630;2022-12-11T13:50:43;101037.69;;;0.85
27715;BMP280;16051;53.024;8.630;2022-12-11T13:55:16;101034.56;;;0.87
27715;BMP280;16051;53.024;8.630;2022-12-11T13:59:29;101030.72;;;0.81
27715;BMP280;16051;53.024;8.630;2022-12-11T14:04:01;101025.69;;;0.83
27715;BMP280;16051;53.024;8.630;2022-12-11T14:08:08;101028.41;;;0.83
27715;BMP280;16051;53.024;8.630;2022-12-11T14:12:18;101039.69;;;0.78
27715;BMP280;16051;53.024;8.630;2022-12-11T14:16:26;101029.13;;;0.87
27715;BMP280;16051;53.024;8.630;2022-12-11T14:20:31;101035.44;;;0.73
27715;BMP280;16051;53.024;8.630;2022-12-11T14:24:35;101034.22;;;0.81
27715;BMP280;16051;53.024;8.630;2022-12-11T14:28:46;101036.19;;;0.77
27715;BMP280;16051;53.024;8.630;2022-12-11T14:32:50;101037.31;;;0.83
27715;BMP280;16051;53.024;8.630;2022-12-11T14:36:54;101027.69;;;0.72
27715;BMP280;16051;53.024;8.630;2022-12-11T14:41:06;101033.53;;;0.63
27715;BMP280;16051;53.024;8.630;2022-12-11T14:45:18;101020.31;;;0.65
27715;BMP280;16051;53.024;8.630;2022-12-11T14:49:39;101025.03;;;0.61
27715;BMP280;16051;53.024;8.630;2022-12-11T14:53:49;101033.56;;;0.60
27715;BMP280;16051;53.024;8.630;2022-12-11T14:58:00;101024.63;;;0.56
27715;BMP280;16051;53.024;8.630;2022-12-11T15:02:25;101036.28;;;0.60
27715;BMP280;16051;53.024;8.630;2022-12-11T15:06:43;101037.06;;;0.60
27715;BMP280;16051;53.024;8.630;2022-12-11T15:11:02;101037.09;;;0.53
27715;BMP280;16051;53.024;8.630;2022-12-11T15:15:27;101038.63;;;0.61
27715;BMP280;16051;53.024;8.630;2022-12-11T15:19:33;101035.53;;;0.48
27715;BMP280;16051;53.024;8.630;2022-12-11T15:23:50;101043.31;;;0.54
27715;BMP280;16051;53.024;8.630;2022-12-11T15:28:22;101040.97;;;0.52
27715;BMP280;16051;53.024;8.630;2022-12-11T15:32:30;101040.97;;;0.52
27715;BMP280;16051;53.024;8.630;2022-12-11T15:36:39;101049.91;;;0.53
27715;BMP280;16051;53.024;8.630;2022-12-11T15:40:41;101057.25;;;0.59
27715;BMP280;16051;53.024;8.630;2022-12-11T15:44:59;101053.75;;;0.55
27715;BMP280;16051;53.024;8.630;2022-12-11T15:49:10;101056.47;;;0.55
27715;BMP280;16051;53.024;8.630;2022-12-11T15:53:13;101053.41;;;0.53
27715;BMP280;16051;53.024;8.630;2022-12-11T15:57:27;101050.66;;;0.57
27715;BMP280;16051;53.024;8.630;2022-12-11T16:01:30;101054.94;;;0.54
27715;BMP280;16051;53.024;8.630;2022-12-11T16:05:43;101057.63;;;0.61
27715;BMP280;16051;53.024;8.630;2022-12-11T16:09:47;101056.47;;;0.59
27715;BMP280;16051;53.024;8.630;2022-12-11T16:13:50;101057.69;;;0.51
27715;BMP280;16051;53.024;8.630;2022-12-11T16:18:00;101050.25;;;0.55
27715;BMP280;16051;53.024;8.630;2022-12-11T16:22:10;101051.03;;;0.55
27715;BMP280;16051;53.024;8.630;2022-12-11T16:26:12;101048.72;;;0.57
27715;BMP280;16051;53.024;8.630;2022-12-11T16:30:15;101052.97;;;0.58
27715;BMP280;16051;53.024;8.630;2022-12-11T16:34:17;101049.88;;;0.56
27715;BMP280;16051;53.024;8.630;2022-12-11T16:38:25;101056.47;;;0.55
27715;BMP280;16051;53.024;8.630;2022-12-11T16:42:27;101063.84;;;0.58
27715;BMP280;16051;53.024;8.630;2022-12-11T16:46:29;101063.09;;;0.58
27715;BMP280;16051;53.024;8.630;2022-12-11T16:50:31;101062.34;;;0.50
27715;BMP280;16051;53.024;8.630;2022-12-11T16:54:45;101044.88;;;0.44
27715;BMP280;16051;53.024;8.630;2022-12-11T16:58:47;101041.38;;;0.43
27715;BMP280;16051;53.024;8.630;2022-12-11T17:02:55;101044.47;;;0.53
27715;BMP280;16051;53.024;8.630;2022-12-11T17:07:14;101041.75;;;0.49
27715;BMP280;16051;53.024;8.630;2022-12-11T17:11:24;101044.09;;;0.43
27715;BMP280;16051;53.024;8.630;2022-12-11T17:15:26;101053.75;;;0.59
27715;BMP280;16051;53.024;8.630;2022-12-11T17:19:28;101056.94;;;0.43
27715;BMP280;16051;53.024;8.630;2022-12-11T17:23:31;101054.59;;;0.41
27715;BMP280;16051;53.024;8.630;2022-12-11T17:27:36;101049.53;;;0.51
27715;BMP280;16051;53.024;8.630;2022-12-11T17:31:39;101058.44;;;0.47
27715;BMP280;16051;53.024;8.630;2022-12-11T17:35:41;101057.31;;;0.41
27715;BMP280;16051;53.024;8.630;2022-12-11T17:40:01;101054.22;;;0.39
27715;BMP280;16051;53.024;8.630;2022-12-11T17:44:06;101046.44;;;0.41
27715;BMP280;16051;53.024;8.630;2022-12-11T17:48:09;101055.72;;;0.47
27715;BMP280;16051;53.024;8.630;2022-12-11T17:52:11;101055.75;;;0.40
27715;BMP280;16051;53.024;8.630;2022-12-11T17:56:13;101055.41;;;0.28
27715;BMP280;16051;53.024;8.630;2022-12-11T18:00:20;101063.56;;;0.28
27715;BMP280;16051;53.024;8.630;2022-12-11T18:04:38;101057.00;;;0.11
27715;BMP280;16051;53.024;8.630;2022-12-11T18:08:46;101055.84;;;0.05
27715;BMP280;16051;53.024;8.630;2022-12-11T18:12:48;101062.06;;;0.13
27715;BMP280;16051;53.024;8.630;2022-12-11T18:16:51;101064.75;;;0.16
27715;BMP280;16051;53.024;8.630;2022-12-11T18:21:21;101055.84;;;0.09
27715;BMP280;16051;53.024;8.630;2022-12-11T18:25:24;101055.06;;;0.05
27715;BMP280;16051;53.024;8.630;2022-12-11T18:29:32;101068.31;;;-0.05
27715;BMP280;16051;53.024;8.630;2022-12-11T18:33:38;101070.25;;;-0.09
27715;BMP280;16051;53.024;8.630;2022-12-11T18:37:41;101062.09;;;-0.09
27715;BMP280;16051;53.024;8.630;2022-12-11T18:41:43;101061.69;;;-0.14
27715;BMP280;16051;53.024;8.630;2022-12-11T18:45:46;101050.84;;;-0.18
27715;BMP280;16051;53.024;8.630;2022-12-11T18:49:49;101053.19;;;-0.16
27715;BMP280;16051;53.024;8.630;2022-12-11T18:53:59;101041.16;;;-0.22
27715;BMP280;16051;53.024;8.630;2022-12-11T18:58:01;101038.47;;;-0.29
27715;BMP280;16051;53.024;8.630;2022-12-11T19:02:04;101038.06;;;-0.35
27715;BMP280;16051;53.024;8.630;2022-12-11T19:06:12;101034.22;;;-0.44
27715;BMP280;16051;53.024;8.630;2022-12-11T19:10:15;101034.22;;;-0.52
27715;BMP280;16051;53.024;8.630;2022-12-11T19:14:18;101036.50;;;-0.54
27715;BMP280;16051;53.024;8.630;2022-12-11T19:18:22;101041.16;;;-0.54
27715;BMP280;16051;53.024;8.630;2022-12-11T19:22:30;101044.66;;;-0.68
27715;BMP280;16051;53.024;8.630;2022-12-11T19:26:40;101053.19;;;-0.66
27715;BMP280;16051;53.024;8.630;2022-12-11T19:30:44;101055.91;;;-0.76
27715;BMP280;16051;53.024;8.630;2022-12-11T19:34:46;101053.94;;;-0.83
27715;BMP280;16051;53.024;8.630;2022-12-11T19:38:52;101058.97;;;-0.92
27715;BMP280;16051;53.024;8.630;2022-12-11T19:43:08;101058.97;;;-0.92
27715;BMP280;16051;53.024;8.630;2022-12-11T19:47:11;101058.19;;;-1.00
27715;BMP280;16051;53.024;8.630;2022-12-11T19:51:17;101050.03;;;-1.03
27715;BMP280;16051;53.024;8.630;2022-12-11T19:55:31;101051.19;;;-1.04
27715;BMP280;16051;53.024;8.630;2022-12-11T19:59:33;101055.03;;;-1.16
27715;BMP280;16051;53.024;8.630;2022-12-11T20:03:35;101054.59;;;-1.28
27715;BMP280;16051;53.024;8.630;2022-12-11T20:12:39;101055.75;;;-1.33
27715;BMP280;16051;53.024;8.630;2022-12-11T20:17:21;101058.06;;;-1.35
27715;BMP280;16051;53.024;8.630;2022-12-11T20:21:34;101067.34;;;-1.39
27715;BMP280;16051;53.024;8.630;2022-12-11T20:25:38;101063.84;;;-1.40
27715;BMP280;16051;53.024;8.630;2022-12-11T20:29:47;101066.97;;;-1.41
27715;BMP280;16051;53.024;8.630;2022-12-11T20:33:58;101067.69;;;-1.48
27715;BMP280;16051;53.024;8.630;2022-12-11T20:38:01;101070.78;;;-1.50
27715;BMP280;16051;53.024;8.630;2022-12-11T20:42:09;101067.28;;;-1.54
27715;BMP280;16051;53.024;8.630;2022-12-11T20:46:15;101072.28;;;-1.59
27715;BMP280;16051;53.024;8.630;2022-12-11T20:50:18;101067.63;;;-1.62
27715;BMP280;16051;53.024;8.630;2022-12-11T20:54:21;101069.16;;;-1.68
27715;BMP280;16051;53.024;8.630;2022-12-11T20:58:23;101071.13;;;-1.62
27715;BMP280;16051;53.024;8.630;2022-12-11T21:02:35;101079.22;;;-1.65
27715;BMP280;16051;53.024;8.630;2022-12-11T21:06:38;101084.63;;;-1.65
27715;BMP280;16051;53.024;8.630;2022-12-11T21:10:50;101085.06;;;-1.63
27715;BMP280;16051;53.024;8.630;2022-12-11T21:14:52;101076.50;;;-1.69
27715;BMP280;16051;53.024;8.630;2022-12-11T21:18:56;101089.28;;;-1.66
27715;BMP280;16051;53.024;8.630;2022-12-11T21:22:59;101089.66;;;-1.71
27715;BMP280;16051;53.024;8.630;2022-12-11T21:27:01;101099.28;;;-1.77
27715;BMP280;16051;53.024;8.630;2022-12-11T21:31:06;101100.47;;;-1.74
27715;BMP280;16051;53.024;8.630;2022-12-11T21:35:26;101091.19;;;-1.70
27715;BMP280;16051;53.024;8.630;2022-12-11T21:39:29;101097.34;;;-1.76
27715;BMP280;16051;53.024;8.630;2022-12-11T21:43:31;101102.75;;;-1.76
27715;BMP280;16051;53.024;8.630;2022-12-11T21:47:41;101103.94;;;-1.74
27715;BMP280;16051;53.024;8.630;2022-12-11T21:51:45;101106.66;;;-1.74
27715;BMP280;16051;53.024;8.630;2022-12-11T21:55:49;101094.69;;;-1.69
27715;BMP280;16051;53.024;8.630;2022-12-11T21:59:51;101102.41;;;-1.75
27715;BMP280;16051;53.024;8.630;2022-12-11T22:04:25;101104.34;;;-1.72
27715;BMP280;16051;53.024;8.630;2022-12-11T22:08:28;101110.94;;;-1.66
27715;BMP280;16051;53.024;8.630;2022-12-11T22:12:30;101097.41;;;-1.66
27715;BMP280;16051;53.024;8.630;2022-12-11T22:16:43;101107.84;;;-1.68
27715;BMP280;16051;53.024;8.630;2022-12-11T22:20:45;101116.00;;;-1.61
27715;BMP280;16051;53.024;8.630;2022-12-11T22:24:49;101105.22;;;-1.54
27715;BMP280;16051;53.024;8.630;2022-12-11T22:28:52;101100.94;;;-1.58
27715;BMP280;16051;53.024;8.630;2022-12-11T22:33:00;101107.13;;;-1.58
27715;BMP280;16051;53.024;8.630;2022-12-11T22:37:02;101110.19;;;-1.63
27715;BMP280;16051;53.024;8.630;2022-12-11T22:41:11;101101.34;;;-1.56
27715;BMP280;16051;53.024;8.630;2022-12-11T22:45:13;101099.75;;;-1.61
27715;BMP280;16051;53.024;8.630;2022-12-11T22:49:15;101109.03;;;-1.65
27715;BMP280;16051;53.024;8.630;2022-12-11T22:53:17;101103.63;;;-1.62
27715;BMP280;16051;53.024;8.630;2022-12-11T22:57:21;101107.09;;;-1.65
27715;BMP280;16051;53.024;8.630;2022-12-11T23:01:25;101114.47;;;-1.62
27715;BMP280;16051;53.024;8.630;2022-12-11T23:05:28;101111.72;;;-1.65
27715;BMP280;16051;53.024;8.630;2022-12-11T23:09:30;101116.38;;;-1.62
27715;BMP280;16051;53.024;8.630;2022-12-11T23:13:34;101095.47;;;-1.65
27715;BMP280;16051;53.024;8.630;2022-12-11T23:17:36;101112.13;;;-1.67
27715;BMP280;16051;53.024;8.630;2022-12-11T23:22:13;101110.91;;;-1.73
27715;BMP280;16051;53.024;8.630;2022-12-11T23:26:18;101105.84;;;-1.81
27715;BMP280;16051;53.024;8.630;2022-12-11T23:30:21;101117.03;;;-1.83
27715;BMP280;16051;53.024;8.630;2022-12-11T23:34:24;101106.50;;;-1.95
27715;BMP280;16051;53.024;8.630;2022-12-11T23:38:39;101110.38;;;-1.96
27715;BMP280;16051;53.024;8.630;2022-12-11T23:42:42;101106.44;;;-2.02
27715;BMP280;16051;53.024;8.630;2022-12-11T23:46:45;101106.78;;;-2.11
27715;BMP280;16051;53.024;8.630;2022-12-11T23:50:47;101105.22;;;-2.15